In Rescue
 
Open Full Screen Window  High Contrast Mode
Wind Gusting 00 knots
07
January 29, 2020 12:05 AM EST
Weather Information
Wind Direction
  060 °
Wind Speed
  07 kt (8 mph)
Wind Gust
  00 kt (0 mph)
Altimeter
30.11 in
Visibility
10 SM
Temperature
-01° C
30° F
Dewpoint
-04° C
25° F
Humidity
80%
1hr Rain Fall
00.00 in.
24hr Rain Fall
00.00 in.
Sky Condition
Overcast @ 3,600 ft
Broken @ 3,000 ft
MVFR

METAR KONZ 290505Z AUTO 06007KT 10SM BKN030 OVC036 M01/M04 A3011 RMK AO2 T10081040

FAA Disclaimer: The data displayed is for advisory purposes only and is not to be used for flight planning or operations.